createdAt,value
2023-02-19T00:00:02.552Z,3.56
2023-02-19T00:05:04.473Z,3.56
2023-02-19T00:10:06.465Z,3.59
2023-02-19T00:15:08.104Z,3.62
2023-02-19T00:20:10.039Z,3.67
2023-02-19T00:25:11.644Z,3.96
2023-02-19T00:30:13.665Z,3.80
2023-02-19T00:35:15.396Z,3.69
2023-02-19T00:40:17.276Z,3.56
2023-02-19T00:45:19.238Z,3.52
2023-02-19T00:50:20.901Z,3.57
2023-02-19T00:55:22.604Z,3.78
2023-02-19T01:00:24.311Z,3.59
2023-02-19T01:05:25.999Z,3.38
2023-02-19T01:10:27.738Z,3.69
2023-02-19T01:15:29.359Z,3.25
2023-02-19T01:20:31.369Z,3.04
2023-02-19T01:25:33.065Z,3.38
2023-02-19T01:30:37.573Z,3.29
2023-02-19T01:35:39.856Z,3.31
2023-02-19T01:40:41.565Z,3.49
2023-02-19T01:45:46.643Z,3.44
2023-02-19T01:50:52.816Z,3.41
2023-02-19T01:55:58.815Z,3.53
2023-02-19T02:01:03.119Z,3.53
2023-02-19T02:06:08.116Z,3.43
2023-02-19T02:11:10.153Z,3.36
2023-02-19T02:16:30.139Z,3.13
2023-02-19T02:22:01.791Z,3.38
2023-02-19T02:27:35.715Z,3.22
2023-02-19T02:32:57.465Z,3.35
2023-02-19T02:38:03.090Z,3.26
2023-02-19T02:43:04.769Z,3.31
2023-02-19T02:48:43.534Z,3.33
2023-02-19T02:54:09.931Z,3.44
2023-02-19T02:59:13.756Z,3.34
2023-02-19T03:04:30.129Z,3.27
2023-02-19T03:09:43.173Z,3.10
2023-02-19T03:15:09.597Z,3.28
2023-02-19T03:20:16.126Z,3.06
2023-02-19T03:25:40.559Z,3.27
2023-02-19T03:30:47.249Z,3.24
2023-02-19T03:36:01.067Z,3.29
2023-02-19T03:41:31.225Z,3.23
2023-02-19T03:47:05.586Z,3.06
2023-02-19T03:52:16.627Z,3.16
2023-02-19T03:57:24.087Z,3.20
2023-02-19T04:02:38.251Z,3.10
2023-02-19T04:07:45.710Z,3.28
2023-02-19T04:13:11.539Z,3.06
2023-02-19T04:18:17.916Z,3.14
2023-02-19T04:23:24.080Z,3.25
2023-02-19T04:28:25.949Z,3.08
2023-02-19T04:33:27.680Z,2.96
2023-02-19T04:38:29.376Z,3.04
2023-02-19T04:43:31.061Z,3.04
2023-02-19T04:48:32.744Z,2.91
2023-02-19T04:53:35.015Z,3.12
2023-02-19T04:58:36.994Z,2.91
2023-02-19T05:03:39.077Z,3.00
2023-02-19T05:08:50.608Z,3.01
2023-02-19T05:13:52.310Z,2.92
2023-02-19T05:18:54.238Z,2.95
2023-02-19T05:23:55.952Z,2.89
2023-02-19T05:28:57.678Z,3.02
2023-02-19T05:33:59.891Z,3.21
2023-02-19T05:39:01.580Z,2.94
2023-02-19T05:44:03.218Z,3.04
2023-02-19T05:49:04.910Z,2.85
2023-02-19T05:54:07.696Z,2.97
2023-02-19T05:59:21.255Z,3.02
2023-02-19T06:04:23.583Z,3.01
2023-02-19T06:09:25.295Z,2.96
2023-02-19T06:14:27.045Z,2.88
2023-02-19T06:19:28.673Z,2.89
2023-02-19T06:24:30.652Z,3.07
2023-02-19T06:29:32.855Z,3.12
2023-02-19T06:34:35.166Z,2.87
2023-02-19T06:39:37.072Z,3.06
2023-02-19T06:44:38.750Z,3.00
2023-02-19T06:49:40.803Z,3.11
2023-02-19T06:54:42.525Z,3.01
2023-02-19T06:59:44.635Z,3.11
2023-02-19T07:04:46.314Z,3.15
2023-02-19T07:09:48.050Z,3.08
2023-02-19T07:14:49.736Z,3.17
2023-02-19T07:19:51.341Z,2.93
2023-02-19T07:24:53.009Z,3.25
2023-02-19T07:29:54.690Z,3.16
2023-02-19T07:34:56.326Z,3.21
2023-02-19T07:39:58.005Z,3.13
2023-02-19T07:45:00.659Z,3.10
2023-02-19T07:50:02.457Z,3.24
2023-02-19T07:55:04.325Z,3.33
2023-02-19T08:00:06.513Z,3.26
2023-02-19T08:05:08.252Z,3.39
2023-02-19T08:10:28.455Z,3.28
2023-02-19T08:15:30.628Z,3.31
2023-02-19T08:20:32.330Z,3.33
2023-02-19T08:25:34.395Z,3.39
2023-02-19T08:30:38.431Z,3.54
2023-02-19T08:35:42.986Z,3.44
2023-02-19T08:40:44.642Z,3.51
2023-02-19T08:45:47.648Z,3.55
2023-02-19T08:50:57.594Z,3.54
2023-02-19T08:55:59.660Z,3.57
2023-02-19T09:01:01.333Z,3.63
2023-02-19T09:06:03.289Z,3.72
2023-02-19T09:11:07.194Z,3.73
2023-02-19T09:16:09.971Z,3.71
2023-02-19T09:21:11.912Z,3.76
2023-02-19T09:26:14.147Z,3.79
2023-02-19T09:31:17.059Z,3.77
2023-02-19T09:36:19.595Z,3.81
2023-02-19T09:41:47.437Z,3.89
2023-02-19T09:46:51.823Z,4.12
2023-02-19T09:52:12.334Z,4.42
2023-02-19T09:57:16.652Z,4.70
2023-02-19T10:02:25.797Z,4.83
2023-02-19T10:07:38.493Z,4.97
2023-02-19T10:12:46.151Z,5.35
2023-02-19T10:17:47.971Z,5.19
2023-02-19T10:22:49.902Z,5.27
2023-02-19T10:27:51.573Z,5.71
2023-02-19T10:33:14.618Z,5.84
2023-02-19T10:38:17.756Z,6.04
2023-02-19T10:43:32.060Z,6.05
2023-02-19T10:48:47.778Z,6.18
2023-02-19T10:53:52.206Z,6.38
2023-02-19T10:58:54.111Z,6.43
2023-02-19T11:04:17.714Z,6.51
2023-02-19T11:09:31.657Z,6.74
2023-02-19T11:14:35.111Z,6.96
2023-02-19T11:19:49.085Z,7.45
2023-02-19T11:24:55.892Z,8.33
2023-02-19T11:30:26.866Z,7.39
2023-02-19T11:35:31.500Z,7.57
2023-02-19T11:40:45.360Z,7.63
2023-02-19T11:46:03.775Z,8.45
2023-02-19T11:51:31.893Z,8.52
2023-02-19T11:56:37.287Z,9.84
2023-02-19T12:01:55.788Z,8.81
2023-02-19T12:07:35.110Z,9.37
2023-02-19T12:12:56.244Z,10.38
2023-02-19T12:18:26.862Z,10.48
2023-02-19T12:24:06.804Z,10.57
2023-02-19T12:29:22.033Z,9.57
2023-02-19T12:34:51.195Z,9.78
2023-02-19T12:39:59.234Z,9.70
2023-02-19T12:45:15.635Z,9.63
2023-02-19T12:50:24.003Z,11.12
2023-02-19T12:55:41.299Z,10.18
2023-02-19T13:00:50.588Z,12.44
2023-02-19T13:06:00.925Z,11.50
2023-02-19T13:11:09.574Z,11.69
2023-02-19T13:16:18.735Z,11.88
2023-02-19T13:21:43.378Z,10.88
2023-02-19T13:27:09.084Z,11.13
2023-02-19T13:32:27.774Z,11.31
2023-02-19T13:37:34.721Z,11.81
2023-02-19T13:42:37.462Z,13.14
2023-02-19T13:47:54.518Z,11.81
2023-02-19T13:53:02.105Z,12.49
2023-02-19T13:58:52.292Z,13.35
2023-02-19T14:04:07.277Z,12.72
2023-02-19T14:09:35.561Z,12.02
2023-02-19T14:14:39.548Z,12.09
2023-02-19T14:19:51.914Z,11.86
2023-02-19T14:24:55.218Z,12.00
2023-02-19T14:29:59.745Z,11.65
2023-02-19T14:35:02.096Z,11.89
2023-02-19T14:40:05.981Z,11.10
2023-02-19T14:45:09.027Z,11.21
2023-02-19T14:50:26.715Z,11.45
2023-02-19T14:55:40.040Z,11.29
2023-02-19T15:00:43.630Z,10.99
2023-02-19T15:05:47.748Z,10.64
2023-02-19T15:10:50.064Z,10.98
2023-02-19T15:15:53.618Z,10.67
2023-02-19T15:21:05.232Z,11.09
2023-02-19T15:26:22.942Z,10.84
2023-02-19T15:31:25.474Z,10.75
2023-02-19T15:36:35.107Z,10.63
2023-02-19T15:41:37.819Z,10.68
2023-02-19T15:46:43.761Z,10.62
2023-02-19T15:51:58.178Z,10.28
2023-02-19T15:57:06.562Z,10.05
2023-02-19T16:02:16.170Z,10.22
2023-02-19T16:07:32.672Z,10.49
2023-02-19T16:12:35.386Z,9.94
2023-02-19T16:17:42.879Z,10.19
2023-02-19T16:22:45.356Z,9.78
2023-02-19T16:27:47.746Z,9.66
2023-02-19T16:33:28.921Z,9.63
2023-02-19T16:38:31.478Z,9.86
2023-02-19T16:43:42.192Z,9.69
2023-02-19T16:48:46.017Z,9.68
2023-02-19T16:53:48.694Z,9.59
2023-02-19T16:58:52.482Z,9.81
2023-02-19T17:04:01.877Z,9.34
2023-02-19T17:09:06.484Z,9.20
2023-02-19T17:14:09.898Z,9.32
2023-02-19T17:19:21.915Z,9.40
2023-02-19T17:24:25.302Z,8.99
2023-02-19T17:29:29.124Z,8.91
2023-02-19T17:34:31.831Z,8.90
2023-02-19T17:39:34.312Z,8.82
2023-02-19T17:44:36.581Z,8.61
2023-02-19T17:49:40.029Z,8.62
2023-02-19T17:54:43.558Z,8.57
2023-02-19T17:59:47.324Z,8.68
2023-02-19T18:04:50.031Z,9.48
2023-02-19T18:09:52.616Z,9.54
2023-02-19T18:14:56.782Z,9.85
2023-02-19T18:20:01.902Z,9.71
2023-02-19T18:25:08.807Z,9.98
2023-02-19T18:30:13.035Z,10.09
2023-02-19T18:35:17.513Z,9.56
2023-02-19T18:40:28.030Z,9.42
2023-02-19T18:45:41.179Z,9.29
2023-02-19T18:50:44.881Z,9.44
2023-02-19T18:55:47.612Z,8.92
2023-02-19T19:00:50.267Z,9.25
2023-02-19T19:05:53.245Z,9.60
2023-02-19T19:10:56.758Z,9.32
2023-02-19T19:16:00.104Z,9.02
2023-02-19T19:21:05.304Z,8.70
2023-02-19T19:26:08.353Z,8.42
2023-02-19T19:31:13.204Z,8.68
2023-02-19T19:36:21.228Z,8.51
2023-02-19T19:41:24.223Z,8.34
2023-02-19T19:46:27.678Z,8.14
2023-02-19T19:51:34.723Z,8.18
2023-02-19T19:56:47.140Z,7.94
2023-02-19T20:01:54.711Z,7.80
2023-02-19T20:07:01.490Z,7.71
2023-02-19T20:12:05.201Z,7.68
2023-02-19T20:17:10.187Z,7.65
2023-02-19T20:22:14.301Z,7.63
2023-02-19T20:27:17.344Z,7.66
2023-02-19T20:32:21.252Z,7.47
2023-02-19T20:37:23.545Z,7.52
2023-02-19T20:42:26.138Z,7.38
2023-02-19T20:47:28.579Z,7.39
2023-02-19T20:52:31.285Z,7.26
2023-02-19T20:57:33.794Z,7.25
2023-02-19T21:02:37.055Z,7.28
2023-02-19T21:07:40.009Z,7.00
2023-02-19T21:12:42.243Z,6.90
2023-02-19T21:17:48.064Z,6.98
2023-02-19T21:22:50.556Z,6.87
2023-02-19T21:27:54.308Z,6.88
2023-02-19T21:32:56.198Z,6.82
2023-02-19T21:37:58.123Z,6.89
2023-02-19T21:43:00.630Z,6.74
2023-02-19T21:48:03.072Z,6.50
2023-02-19T21:53:05.764Z,6.58
2023-02-19T21:58:08.253Z,6.70
2023-02-19T22:03:15.559Z,6.62
2023-02-19T22:08:17.573Z,6.55
2023-02-19T22:13:19.195Z,6.32
2023-02-19T22:18:20.857Z,6.26
2023-02-19T22:23:22.542Z,6.37
2023-02-19T22:28:24.730Z,6.31
2023-02-19T22:33:26.373Z,6.28
2023-02-19T22:38:27.940Z,6.11
2023-02-19T22:43:29.568Z,6.32
2023-02-19T22:48:31.490Z,6.05
2023-02-19T22:53:33.184Z,6.05
2023-02-19T22:58:34.826Z,6.02
2023-02-19T23:03:45.933Z,5.95
2023-02-19T23:08:47.682Z,5.70
2023-02-19T23:13:49.509Z,5.70
2023-02-19T23:18:51.472Z,5.87
2023-02-19T23:23:53.359Z,6.02
2023-02-19T23:28:54.998Z,6.03
2023-02-19T23:33:56.709Z,5.73
2023-02-19T23:38:58.398Z,5.61
2023-02-19T23:44:00.019Z,5.60
2023-02-19T23:49:01.648Z,5.70
2023-02-19T23:54:03.511Z,5.69
2023-02-19T23:59:05.956Z,5.67
